Akron, Iowa
Current Conditions -  °F | °C
As of 2:55 PM on Tuesday 21 Oct 2014 (Local Time) from KLRJ Reporting Station
Clear Clear  
Wind Chill: 73°   Ceiling: Unl
Heat Index: 73°   Visibility: 10mi
Dew Point: 43°   Wind: 15mph
Humidity: 33%   Direction: 180°S
Pressure: 30.02"   Gusts: NA
Location:  42.83°N, 96.56°W
Report Text: KLRJ 211955Z AUTO 18013KT 10SM CLR 23/06 A3002 RMK AO2
Loading
Personal Weather Stations






























Interactive Weather Map New forecast layout! Learn more

10-Day Weather Forecast

Advertisements
Track Severe Weather on mobile